createdAt,value
2022-08-16T00:01:11.824Z,2.63
2022-08-16T00:03:38.876Z,2.85
2022-08-16T00:06:08.142Z,2.50
2022-08-16T00:08:37.799Z,3.00
2022-08-16T00:11:15.158Z,2.70
2022-08-16T00:13:43.170Z,2.40
2022-08-16T00:17:05.551Z,2.63
2022-08-16T00:19:06.458Z,2.85
2022-08-16T00:21:33.940Z,2.65
2022-08-16T00:24:04.799Z,2.85
2022-08-16T00:26:36.160Z,2.47
2022-08-16T00:29:05.667Z,2.63
2022-08-16T00:31:58.857Z,2.38
2022-08-16T00:34:44.781Z,2.65
2022-08-16T00:37:11.634Z,2.53
2022-08-16T00:39:38.988Z,2.55
2022-08-16T00:42:10.118Z,2.85
2022-08-16T00:47:16.353Z,3.13
2022-08-16T00:49:44.439Z,2.70
2022-08-16T00:52:30.201Z,3.00
2022-08-16T00:54:59.350Z,3.13
2022-08-16T00:57:58.302Z,3.60
2022-08-16T01:00:19.866Z,2.97
2022-08-16T01:02:48.954Z,2.65
2022-08-16T01:05:16.211Z,3.25
2022-08-16T01:07:52.007Z,3.17
2022-08-16T01:10:31.326Z,2.63
2022-08-16T01:13:04.527Z,2.60
2022-08-16T01:15:33.923Z,2.60
2022-08-16T01:18:02.965Z,2.80
2022-08-16T01:20:33.947Z,2.97
2022-08-16T01:23:17.837Z,3.05
2022-08-16T01:25:59.851Z,2.72
2022-08-16T01:28:30.622Z,3.40
2022-08-16T01:30:59.795Z,3.08
2022-08-16T01:33:33.303Z,3.00
2022-08-16T01:36:11.812Z,2.67
2022-08-16T01:38:49.003Z,3.47
2022-08-16T01:41:22.814Z,2.95
2022-08-16T01:43:53.755Z,2.92
2022-08-16T01:46:40.014Z,2.95
2022-08-16T01:49:43.668Z,2.97
2022-08-16T01:52:28.187Z,3.58
2022-08-16T01:54:58.263Z,3.08
2022-08-16T01:57:27.802Z,2.72
2022-08-16T01:59:58.484Z,2.42
2022-08-16T02:02:27.288Z,2.97
2022-08-16T02:04:55.342Z,2.92
2022-08-16T02:07:23.746Z,3.03
2022-08-16T02:09:58.892Z,3.58
2022-08-16T02:12:50.044Z,2.88
2022-08-16T02:15:25.469Z,3.30
2022-08-16T02:17:53.253Z,3.03
2022-08-16T02:20:26.388Z,2.50
2022-08-16T02:22:55.322Z,2.85
2022-08-16T02:25:22.751Z,2.65
2022-08-16T02:27:51.488Z,2.53
2022-08-16T02:30:37.553Z,2.92
2022-08-16T02:33:10.295Z,2.33
2022-08-16T02:35:54.093Z,2.85
2022-08-16T02:38:24.978Z,2.80
2022-08-16T02:40:54.417Z,3.28
2022-08-16T02:43:26.654Z,2.63
2022-08-16T02:45:54.200Z,3.08
2022-08-16T02:48:29.502Z,3.55
2022-08-16T02:51:10.691Z,3.15
2022-08-16T02:53:47.505Z,4.10
2022-08-16T02:56:17.920Z,2.70
2022-08-16T02:58:50.659Z,2.47
2022-08-16T03:01:33.745Z,3.15
2022-08-16T03:04:41.132Z,2.60
2022-08-16T03:06:55.271Z,2.63
2022-08-16T03:09:24.332Z,2.33
2022-08-16T03:11:51.011Z,2.90
2022-08-16T03:14:21.405Z,2.50
2022-08-16T03:16:59.212Z,3.00
2022-08-16T03:19:47.431Z,2.20
2022-08-16T03:22:18.985Z,2.65
2022-08-16T03:24:54.783Z,3.38
2022-08-16T03:27:25.138Z,3.17
2022-08-16T03:29:57.831Z,3.03
2022-08-16T03:32:24.480Z,2.78
2022-08-16T03:34:52.927Z,2.70
2022-08-16T03:37:19.657Z,3.00
2022-08-16T03:39:47.029Z,2.90
2022-08-16T03:42:20.502Z,3.05
2022-08-16T03:44:50.004Z,2.92
2022-08-16T03:47:19.115Z,3.10
2022-08-16T03:49:51.410Z,3.80
2022-08-16T03:52:20.589Z,3.42
2022-08-16T03:54:57.452Z,3.63
2022-08-16T03:57:31.762Z,3.28
2022-08-16T04:00:35.555Z,2.97
2022-08-16T04:03:08.802Z,3.22
2022-08-16T04:05:48.457Z,3.78
2022-08-16T04:08:23.051Z,3.47
2022-08-16T04:10:51.817Z,3.80
2022-08-16T04:13:20.238Z,3.22
2022-08-16T04:16:06.563Z,3.60
2022-08-16T04:18:36.818Z,2.95
2022-08-16T04:21:04.018Z,3.13
2022-08-16T04:23:30.680Z,3.20
2022-08-16T04:25:57.377Z,3.17
2022-08-16T04:28:54.357Z,3.13
2022-08-16T04:31:15.642Z,3.53
2022-08-16T04:33:50.873Z,2.67
2022-08-16T04:36:20.212Z,3.10
2022-08-16T04:38:47.270Z,2.85
2022-08-16T04:41:17.499Z,3.40
2022-08-16T04:43:44.731Z,3.30
2022-08-16T04:47:00.130Z,3.30
2022-08-16T04:49:03.899Z,3.72
2022-08-16T04:51:36.066Z,3.42
2022-08-16T04:54:06.081Z,3.58
2022-08-16T04:56:33.371Z,3.33
2022-08-16T04:59:00.734Z,3.47
2022-08-16T05:01:57.758Z,3.15
2022-08-16T05:04:19.240Z,3.75
2022-08-16T05:06:46.599Z,2.60
2022-08-16T05:09:14.517Z,2.90
2022-08-16T05:11:43.275Z,2.95
2022-08-16T05:14:10.159Z,2.80
2022-08-16T05:16:36.870Z,3.60
2022-08-16T05:19:04.950Z,3.50
2022-08-16T05:21:36.020Z,3.38
2022-08-16T05:24:07.137Z,3.22
2022-08-16T05:26:37.553Z,3.00
2022-08-16T05:29:10.817Z,3.60
2022-08-16T05:31:44.189Z,3.42
2022-08-16T05:34:19.950Z,2.80
2022-08-16T05:36:51.154Z,3.13
2022-08-16T05:39:18.812Z,3.80
2022-08-16T05:41:47.755Z,2.90
2022-08-16T05:44:22.904Z,3.10
2022-08-16T05:47:00.318Z,2.58
2022-08-16T05:49:38.901Z,3.58
2022-08-16T05:52:11.375Z,3.58
2022-08-16T05:54:45.950Z,3.03
2022-08-16T05:57:14.552Z,3.42
2022-08-16T05:59:41.870Z,2.95
2022-08-16T06:02:08.614Z,3.20
2022-08-16T06:04:37.539Z,2.72
2022-08-16T06:07:08.164Z,2.67
2022-08-16T06:09:37.155Z,3.08
2022-08-16T06:12:10.976Z,3.42
2022-08-16T06:14:40.107Z,2.88
2022-08-16T06:17:07.610Z,3.53
2022-08-16T06:19:35.796Z,2.40
2022-08-16T06:22:03.253Z,2.97
2022-08-16T06:24:53.815Z,3.30
2022-08-16T06:27:17.144Z,2.90
2022-08-16T06:29:44.702Z,2.95
2022-08-16T06:32:27.369Z,3.10
2022-08-16T06:35:02.834Z,2.65
2022-08-16T06:37:36.974Z,3.75
2022-08-16T06:40:05.628Z,3.58
2022-08-16T06:42:47.907Z,4.35
2022-08-16T06:45:15.705Z,3.80
2022-08-16T06:47:53.396Z,3.00
2022-08-16T06:50:31.533Z,3.85
2022-08-16T06:53:06.837Z,2.97
2022-08-16T06:55:38.289Z,3.50
2022-08-16T06:58:08.095Z,3.10
2022-08-16T07:00:37.637Z,2.83
2022-08-16T07:03:26.809Z,2.03
2022-08-16T07:05:53.926Z,2.70
2022-08-16T07:08:21.063Z,2.33
2022-08-16T07:10:47.838Z,2.35
2022-08-16T07:13:23.052Z,2.63
2022-08-16T07:16:02.709Z,2.58
2022-08-16T07:18:29.579Z,2.63
2022-08-16T07:21:01.711Z,2.47
2022-08-16T07:23:37.204Z,2.67
2022-08-16T07:26:08.498Z,2.72
2022-08-16T07:28:35.563Z,2.85
2022-08-16T07:31:03.309Z,2.72
2022-08-16T07:33:53.801Z,2.63
2022-08-16T07:36:22.837Z,2.47
2022-08-16T07:38:49.976Z,2.80
2022-08-16T07:41:17.458Z,2.40
2022-08-16T07:43:46.268Z,2.60
2022-08-16T07:46:38.752Z,1.80
2022-08-16T07:49:03.720Z,2.28
2022-08-16T07:51:35.581Z,2.47
2022-08-16T07:54:09.630Z,2.25
2022-08-16T07:56:38.093Z,2.28
2022-08-16T07:59:05.775Z,2.42
2022-08-16T08:01:33.571Z,2.22
2022-08-16T08:04:04.441Z,2.67
2022-08-16T08:10:29.657Z,2.40
2022-08-16T08:12:59.369Z,2.67
2022-08-16T08:19:20.981Z,2.42
2022-08-16T08:21:58.952Z,2.30
2022-08-16T08:24:32.343Z,2.75
2022-08-16T08:27:04.303Z,2.53
2022-08-16T08:29:37.450Z,2.60
2022-08-16T08:32:58.624Z,2.50
2022-08-16T08:34:52.563Z,3.00
2022-08-16T08:37:20.095Z,2.55
2022-08-16T08:39:55.299Z,2.28
2022-08-16T08:42:26.781Z,2.60
2022-08-16T08:44:54.716Z,2.95
2022-08-16T08:47:21.410Z,2.50
2022-08-16T08:49:55.188Z,1.80
2022-08-16T08:52:35.369Z,2.55
2022-08-16T08:55:09.237Z,2.22
2022-08-16T08:57:38.084Z,2.50
2022-08-16T09:00:07.896Z,2.00
2022-08-16T09:02:42.741Z,1.80
2022-08-16T09:05:15.442Z,2.50
2022-08-16T09:08:00.539Z,2.28
2022-08-16T09:10:30.598Z,2.05
2022-08-16T09:12:58.864Z,2.45
2022-08-16T09:19:16.523Z,2.42
2022-08-16T09:21:59.482Z,2.20
2022-08-16T09:24:51.474Z,1.90
2022-08-16T09:27:13.224Z,2.08
2022-08-16T09:29:45.349Z,2.22
2022-08-16T09:32:12.870Z,2.42
2022-08-16T09:34:58.281Z,2.00
2022-08-16T09:37:29.577Z,1.85
2022-08-16T09:40:01.051Z,2.25
2022-08-16T09:42:29.391Z,2.45
2022-08-16T09:45:11.823Z,1.90
2022-08-16T09:47:57.038Z,2.22
2022-08-16T09:50:36.830Z,2.25
2022-08-16T09:53:15.408Z,2.08
2022-08-16T09:55:49.442Z,2.20
2022-08-16T09:58:40.673Z,1.92
2022-08-16T10:01:08.738Z,2.08
2022-08-16T10:03:38.399Z,1.85
2022-08-16T10:06:26.250Z,1.80
2022-08-16T10:09:05.999Z,1.70
2022-08-16T10:11:54.014Z,1.80
2022-08-16T10:14:24.987Z,2.00
2022-08-16T10:17:02.704Z,2.50
2022-08-16T10:19:29.517Z,2.33
2022-08-16T10:21:58.989Z,2.33
2022-08-16T10:24:28.316Z,1.77
2022-08-16T10:27:16.668Z,2.17
2022-08-16T10:30:00.360Z,2.00
2022-08-16T10:32:30.546Z,1.70
2022-08-16T10:34:58.554Z,2.03
2022-08-16T10:37:32.751Z,2.00
2022-08-16T10:40:29.632Z,2.20
2022-08-16T10:42:56.253Z,1.77
2022-08-16T10:45:23.124Z,2.10
2022-08-16T10:48:00.552Z,1.95
2022-08-16T10:50:32.499Z,2.20
2022-08-16T10:53:00.102Z,2.00
2022-08-16T10:55:40.913Z,1.80
2022-08-16T10:58:13.708Z,2.20
2022-08-16T11:00:45.989Z,2.28
2022-08-16T11:06:03.222Z,2.35
2022-08-16T11:08:36.428Z,2.25
2022-08-16T11:11:13.005Z,2.10
2022-08-16T11:14:10.681Z,2.00
2022-08-16T11:19:22.798Z,2.20
2022-08-16T11:24:42.251Z,2.08
2022-08-16T11:27:23.463Z,2.00
2022-08-16T11:29:53.371Z,2.05
2022-08-16T11:32:31.366Z,1.65
2022-08-16T11:35:13.556Z,1.80
2022-08-16T11:40:56.799Z,1.83
2022-08-16T11:43:28.935Z,1.95
2022-08-16T11:45:57.831Z,1.67
2022-08-16T11:48:33.373Z,1.70
2022-08-16T11:51:01.683Z,1.60
2022-08-16T11:53:29.680Z,1.80
2022-08-16T11:56:03.436Z,1.95
2022-08-16T11:58:34.010Z,2.20
2022-08-16T12:01:00.855Z,1.80
2022-08-16T12:03:35.429Z,1.90
2022-08-16T12:06:10.994Z,1.80
2022-08-16T12:08:57.443Z,1.70
2022-08-16T12:11:28.153Z,2.03
2022-08-16T12:13:59.303Z,1.77
2022-08-16T12:16:31.181Z,1.90
2022-08-16T12:19:00.982Z,1.83
2022-08-16T12:21:57.543Z,1.70
2022-08-16T12:24:14.838Z,2.03
2022-08-16T12:26:42.656Z,1.95
2022-08-16T12:29:10.566Z,2.17
2022-08-16T12:31:37.298Z,2.08
2022-08-16T12:34:28.841Z,2.22
2022-08-16T12:39:23.098Z,1.70
2022-08-16T12:41:49.953Z,2.30
2022-08-16T12:44:19.877Z,1.77
2022-08-16T12:47:08.237Z,2.08
2022-08-16T12:49:41.910Z,2.40
2022-08-16T12:52:09.072Z,1.83
2022-08-16T12:54:37.446Z,2.28
2022-08-16T12:57:14.002Z,2.05
2022-08-16T12:59:42.059Z,1.85
2022-08-16T13:02:12.576Z,2.42
2022-08-16T13:04:49.902Z,2.17
2022-08-16T13:07:18.142Z,2.25
2022-08-16T13:09:58.336Z,2.67
2022-08-16T13:12:28.439Z,2.05
2022-08-16T13:14:55.934Z,1.63
2022-08-16T13:17:26.502Z,2.42
2022-08-16T13:20:12.593Z,2.08
2022-08-16T13:22:49.957Z,2.35
2022-08-16T13:25:21.437Z,2.33
2022-08-16T13:28:03.100Z,2.28
2022-08-16T13:30:41.767Z,2.30
2022-08-16T13:33:16.923Z,2.92
2022-08-16T13:35:55.898Z,2.33
2022-08-16T13:38:26.058Z,2.22
2022-08-16T13:40:57.322Z,2.00
2022-08-16T13:43:26.399Z,3.25
2022-08-16T13:45:54.082Z,3.28
2022-08-16T13:48:25.346Z,2.45
2022-08-16T13:51:02.469Z,2.05
2022-08-16T13:53:31.024Z,1.80
2022-08-16T13:55:59.573Z,1.98
2022-08-16T13:58:36.716Z,2.33
2022-08-16T14:01:09.804Z,2.58
2022-08-16T14:03:40.998Z,2.15
2022-08-16T14:06:10.566Z,2.70
2022-08-16T14:08:42.005Z,1.83
2022-08-16T14:11:11.740Z,2.42
2022-08-16T14:13:39.662Z,2.50
2022-08-16T14:16:12.643Z,2.30
2022-08-16T14:18:52.662Z,1.88
2022-08-16T14:21:23.576Z,2.13
2022-08-16T14:23:52.290Z,1.90
2022-08-16T14:26:21.218Z,2.30
2022-08-16T14:28:50.400Z,2.53
2022-08-16T14:31:18.401Z,2.80
2022-08-16T14:33:45.534Z,1.88
2022-08-16T14:36:12.316Z,2.70
2022-08-16T14:38:45.560Z,2.35
2022-08-16T14:41:13.711Z,1.77
2022-08-16T14:43:40.623Z,2.30
2022-08-16T14:46:07.751Z,2.30
2022-08-16T14:48:34.816Z,2.13
2022-08-16T14:51:01.893Z,1.83
2022-08-16T14:53:28.808Z,2.08
2022-08-16T14:55:58.518Z,1.90
2022-08-16T14:58:34.995Z,2.65
2022-08-16T15:01:06.121Z,3.38
2022-08-16T15:03:37.382Z,2.15
2022-08-16T15:06:04.934Z,2.45
2022-08-16T15:08:34.157Z,2.17
2022-08-16T15:11:05.309Z,2.20
2022-08-16T15:13:32.529Z,2.60
2022-08-16T15:16:02.753Z,2.65
2022-08-16T15:18:31.561Z,2.65
2022-08-16T15:20:59.752Z,2.28
2022-08-16T15:23:28.400Z,2.35
2022-08-16T15:26:03.651Z,1.75
2022-08-16T15:28:32.780Z,2.33
2022-08-16T15:31:06.077Z,2.15
2022-08-16T15:33:43.335Z,2.10
2022-08-16T15:36:18.325Z,2.15
2022-08-16T15:38:56.189Z,2.20
2022-08-16T15:42:01.928Z,2.00
2022-08-16T15:44:38.910Z,2.38
2022-08-16T15:47:18.850Z,2.10
2022-08-16T15:49:53.091Z,2.22
2022-08-16T15:52:35.576Z,2.38
2022-08-16T15:55:23.654Z,2.55
2022-08-16T16:00:21.774Z,2.97
2022-08-16T16:02:49.587Z,5.28
2022-08-16T16:05:17.127Z,4.00
2022-08-16T16:07:56.492Z,5.00
2022-08-16T16:10:31.415Z,2.40
2022-08-16T16:13:03.821Z,23.42
2022-08-16T16:15:34.766Z,23.23
2022-08-16T16:18:09.193Z,33.25
2022-08-16T16:20:37.354Z,122.95
2022-08-16T16:23:10.305Z,46.70
2022-08-16T16:25:38.774Z,6.28
2022-08-16T16:28:12.677Z,178.15
2022-08-16T16:30:44.857Z,171.65
2022-08-16T16:33:21.118Z,29.88
2022-08-16T16:35:55.579Z,104.82
2022-08-16T16:38:28.746Z,29.48
2022-08-16T16:40:56.002Z,35.67
2022-08-16T16:43:25.502Z,73.00
2022-08-16T16:45:58.271Z,91.07
2022-08-16T16:48:34.448Z,146.27
2022-08-16T16:51:09.022Z,98.50
2022-08-16T16:53:56.196Z,48.05
2022-08-16T16:56:31.089Z,118.15
2022-08-16T16:59:06.689Z,95.03
2022-08-16T17:01:59.344Z,58.47
2022-08-16T17:04:31.993Z,43.65
2022-08-16T17:07:03.712Z,29.02
2022-08-16T17:09:34.478Z,7.20
2022-08-16T17:12:07.731Z,40.50
2022-08-16T17:14:35.734Z,36.13
2022-08-16T17:17:08.623Z,15.50
2022-08-16T17:19:41.163Z,9.90
2022-08-16T17:22:15.218Z,8.23
2022-08-16T17:24:44.942Z,8.27
2022-08-16T17:27:18.081Z,4.15
2022-08-16T17:29:51.434Z,5.75
2022-08-16T17:32:33.844Z,9.48
2022-08-16T17:35:18.387Z,10.48
2022-08-16T17:37:51.686Z,7.18
2022-08-16T17:40:46.760Z,8.52
2022-08-16T17:43:16.330Z,5.38
2022-08-16T17:45:43.399Z,2.42
2022-08-16T17:48:10.836Z,4.13
2022-08-16T17:50:37.893Z,2.50
2022-08-16T17:53:05.211Z,2.60
2022-08-16T17:55:35.814Z,3.40
2022-08-16T17:58:09.748Z,2.55
2022-08-16T18:00:49.179Z,3.75
2022-08-16T18:04:07.373Z,2.75
2022-08-16T18:06:12.648Z,3.72
2022-08-16T18:08:39.924Z,2.88
2022-08-16T18:11:07.988Z,4.45
2022-08-16T18:13:34.746Z,2.95
2022-08-16T18:16:01.708Z,2.83
2022-08-16T18:18:28.414Z,3.20
2022-08-16T18:21:13.995Z,2.83
2022-08-16T18:23:40.733Z,3.97
2022-08-16T18:26:08.007Z,2.58
2022-08-16T18:28:37.774Z,2.97
2022-08-16T18:31:08.637Z,3.47
2022-08-16T18:33:43.312Z,3.22
2022-08-16T18:36:20.618Z,3.33
2022-08-16T18:38:48.930Z,2.72
2022-08-16T18:41:16.458Z,3.60
2022-08-16T18:44:22.256Z,3.03
2022-08-16T18:46:30.017Z,3.00
2022-08-16T18:48:57.027Z,2.95
2022-08-16T18:51:25.401Z,3.10
2022-08-16T18:53:52.507Z,3.80
2022-08-16T18:56:19.674Z,3.42
2022-08-16T18:58:46.608Z,3.08
2022-08-16T19:01:13.605Z,3.00
2022-08-16T19:03:40.516Z,2.67
2022-08-16T19:06:14.232Z,3.50
2022-08-16T19:08:44.125Z,2.50
2022-08-16T19:11:14.035Z,2.80
2022-08-16T19:13:44.284Z,3.47
2022-08-16T19:16:13.360Z,3.25
2022-08-16T19:18:40.642Z,2.92
2022-08-16T19:21:08.858Z,3.50
2022-08-16T19:23:37.227Z,3.33
2022-08-16T19:26:11.092Z,3.65
2022-08-16T19:28:59.069Z,3.38
2022-08-16T19:31:34.040Z,4.15
2022-08-16T19:34:02.115Z,3.03
2022-08-16T19:36:36.171Z,3.00
2022-08-16T19:39:10.476Z,3.63
2022-08-16T19:41:39.812Z,3.20
2022-08-16T19:44:07.081Z,3.45
2022-08-16T19:46:34.499Z,2.60
2022-08-16T19:49:01.228Z,3.20
2022-08-16T19:51:28.584Z,3.40
2022-08-16T19:53:55.457Z,3.47
2022-08-16T19:56:25.666Z,4.18
2022-08-16T19:59:17.481Z,3.10
2022-08-16T20:01:42.187Z,3.30
2022-08-16T20:04:12.076Z,3.20
2022-08-16T20:06:39.429Z,3.40
2022-08-16T20:09:06.704Z,4.03
2022-08-16T20:11:34.783Z,3.47
2022-08-16T20:14:02.033Z,3.80
2022-08-16T20:16:31.287Z,3.70
2022-08-16T20:19:01.258Z,3.67
2022-08-16T20:21:28.452Z,3.28
2022-08-16T20:24:09.912Z,3.85
2022-08-16T20:26:41.955Z,3.72
2022-08-16T20:29:08.885Z,3.30
2022-08-16T20:31:35.754Z,3.28
2022-08-16T20:34:02.450Z,3.13
2022-08-16T20:36:29.911Z,3.20
2022-08-16T20:38:57.748Z,3.58
2022-08-16T20:41:24.495Z,3.47
2022-08-16T20:43:51.274Z,3.63
2022-08-16T20:46:22.212Z,3.30
2022-08-16T20:48:49.133Z,3.78
2022-08-16T20:51:16.593Z,3.10
2022-08-16T20:53:44.020Z,4.22
2022-08-16T20:56:12.088Z,4.15
2022-08-16T20:58:39.641Z,3.42
2022-08-16T21:01:07.216Z,3.13
2022-08-16T21:03:34.409Z,3.70
2022-08-16T21:06:02.278Z,3.55
2022-08-16T21:08:52.068Z,3.80
2022-08-16T21:11:16.647Z,3.15
2022-08-16T21:13:43.356Z,2.90
2022-08-16T21:16:10.854Z,3.65
2022-08-16T21:18:37.584Z,3.53
2022-08-16T21:21:04.328Z,3.40
2022-08-16T21:23:31.069Z,3.80
2022-08-16T21:25:59.698Z,3.75
2022-08-16T21:28:40.878Z,3.47
2022-08-16T21:31:15.213Z,3.30
2022-08-16T21:33:43.192Z,3.20
2022-08-16T21:36:11.211Z,3.75
2022-08-16T21:38:39.026Z,4.00
2022-08-16T21:41:12.824Z,3.67
2022-08-16T21:43:40.289Z,4.13
2022-08-16T21:46:08.337Z,4.20
2022-08-16T21:48:36.916Z,4.18
2022-08-16T21:51:11.089Z,3.30
2022-08-16T21:53:37.981Z,3.70
2022-08-16T21:56:05.813Z,3.90
2022-08-16T21:58:33.134Z,3.65
2022-08-16T22:01:01.129Z,3.85
2022-08-16T22:03:28.427Z,3.45
2022-08-16T22:06:11.643Z,4.15
2022-08-16T22:08:48.691Z,4.35
2022-08-16T22:11:22.780Z,3.97
2022-08-16T22:13:57.481Z,3.60
2022-08-16T22:16:27.238Z,3.45
2022-08-16T22:18:53.899Z,3.65
2022-08-16T22:21:20.555Z,3.72
2022-08-16T22:23:56.548Z,3.88
2022-08-16T22:26:32.004Z,3.30
2022-08-16T22:29:05.564Z,3.38
2022-08-16T22:31:32.984Z,4.15
2022-08-16T22:34:01.840Z,3.88
2022-08-16T22:36:30.108Z,3.80
2022-08-16T22:39:02.978Z,4.43
2022-08-16T22:41:34.610Z,3.83
2022-08-16T22:44:03.373Z,3.85
2022-08-16T22:46:30.431Z,4.25
2022-08-16T22:48:57.714Z,3.50
2022-08-16T22:51:27.016Z,4.32
2022-08-16T22:53:54.695Z,4.60
2022-08-16T22:56:22.486Z,4.05
2022-08-16T22:58:49.385Z,4.25
2022-08-16T23:01:17.853Z,4.10
2022-08-16T23:03:44.874Z,3.80
2022-08-16T23:06:12.517Z,4.22
2022-08-16T23:08:41.495Z,3.90
2022-08-16T23:11:11.396Z,3.83
2022-08-16T23:13:50.718Z,4.00
2022-08-16T23:18:49.455Z,3.90
2022-08-16T23:21:18.025Z,3.47
2022-08-16T23:23:46.667Z,3.88
2022-08-16T23:26:46.783Z,4.03
2022-08-16T23:29:04.367Z,3.78
2022-08-16T23:31:32.675Z,5.43
2022-08-16T23:33:59.926Z,3.90
2022-08-16T23:36:26.639Z,3.88
2022-08-16T23:38:53.358Z,3.78
2022-08-16T23:41:20.334Z,3.95
2022-08-16T23:43:47.266Z,4.32
2022-08-16T23:46:17.277Z,4.30
2022-08-16T23:49:56.077Z,4.00
2022-08-16T23:51:32.356Z,4.05
2022-08-16T23:54:00.008Z,3.95
2022-08-16T23:56:26.711Z,4.28
2022-08-16T23:59:02.213Z,4.30
